Current Weather

Ministro Pistarini

Ministro Pistarini, Argentina (SAEZ)

Report from: Thursday, July 18, 2024 10:00 AM -03
Current time: Thursday, July 18, 2024 11:08 AM -03

Nearby weather – Weather history – Daily summaries
Weather forecast

Temperature14.0°C (57.2°F)
Dew point10.0°C (50.0°F)
Winds 6 kts (3.1 m/s, 6.9 mph) North-Northeast (30°)
Clouds Sky clear
Altimeter30.09 in.Hg (1019 mB)
Relative humidity77 %
Density altitude-139 ft. (-42 m)
Remarks Ceiling and visibility OK
No significant changes expected in the next two hours
Flight conditions Visual Meteorological Conditions
Raw dataSAEZ 181300Z 03006KT CAVOK 14/10 Q1019 NOSIG
An error has occurred. This application may no longer respond until reloaded. Reload 🗙